Flight Track Log - Related Links

Times and Time Zones

All times are in EDT time to prevent confusion due to time zone crossing. See the UAL4457 flight status page for this flight to view local times or setup timezone preferences in your user account.

Time Position Orientation Groundspeed Altitude Reporting Facility
EDT Latitude Longitude Course Direction KTS MPH feet Rate Location/Type
Mon 07:19:52 PM 38.0025 -84.6447 241° Southwest 181 208 34,000  Level Indianapolis Center
Mon 07:20:54 PM 37.9725 -84.7047 238° Southwest 209 241 5,700 -12,683 Descending Indianapolis Center
Mon 07:21:55 PM 37.9417 -84.7817 243° Southwest 227 261 8,000 2,293 Climbing Indianapolis Center
Mon 07:22:00 PM 37.8982 -84.9417 241° Southwest  Level FlightAware Approximate
Mon 07:22:57 PM 37.9083 -84.8667 244° Southwest 261 300 10,400  Level Indianapolis Center
Mon 07:23:00 PM 37.8484 -85.0531 238° Southwest  Level FlightAware Approximate
Mon 07:23:59 PM 37.8606 -84.9883 244° Southwest 312 359 12,000  Level Indianapolis Center
Mon 07:24:00 PM 37.8051 -85.1682 247° West  Level FlightAware Approximate
Mon 07:25:00 PM 37.7613 -85.2831 241° Southwest  Level FlightAware Approximate
Mon 07:25:01 PM 37.8178 -85.0969 244° Southwest 338 389 14,100  Level Indianapolis Center
Mon 07:26:03 PM 37.7728 -85.2078 243° Southwest 349 402 16,200 1,756 Climbing Indianapolis Center
Mon 07:27:04 PM 37.7286 -85.3197 244° Southwest 355 409 17,700 1,610 Climbing Indianapolis Center
Mon 07:28:06 PM 37.6828 -85.4328 243° Southwest 359 413 19,500 1,839 Climbing Indianapolis Center
Mon 07:29:08 PM 37.6342 -85.5564 244° Southwest 363 418 21,500 1,839 Climbing Indianapolis Center
Mon 07:30:10 PM 37.5861 -85.6725 242° Southwest 369 425 23,300 1,756 Climbing Indianapolis Center
Mon 07:31:11 PM 37.5400 -85.7864 243° Southwest 364 419 25,100 1,854 Climbing Indianapolis Center
Mon 07:32:13 PM 37.4886 -85.9128 243° Southwest 366 421 27,100 1,790 Climbing Indianapolis Center
Mon 07:33:15 PM 37.4436 -86.0236 243° Southwest 359 413 28,800 1,707 Climbing Indianapolis Center
Mon 07:34:16 PM 37.3992 -86.1331 243° Southwest 351 404 30,600 1,610 Climbing Indianapolis Center
Mon 07:35:18 PM 37.3539 -86.2428 243° Southwest 350 403 32,100 1,476 Climbing Indianapolis Center
Mon 07:36:22 PM 37.3089 -86.3517 243° Southwest 353 406 33,700 919 Climbing Memphis Center
Mon 07:37:22 PM 37.2664 -86.4581 243° Southwest 353 406 34,000 150 Climbing Memphis Center
Mon 07:38:22 PM 37.2161 -86.5803 243° Southwest 378 435 34,000  Level Memphis Center
Mon 07:39:22 PM 37.1594 -86.7131 242° Southwest 397 457 34,000  Level Memphis Center
Mon 07:40:22 PM 37.1072 -86.8456 244° Southwest 410 472 34,000  Level Memphis Center
Mon 07:41:22 PM 37.0522 -86.9700 241° Southwest 416 479 34,000  Level Memphis Center
Mon 07:42:22 PM 36.9975 -87.0997 242° Southwest 416 479 34,000  Level Memphis Center
Mon 07:43:22 PM 36.9444 -87.2239 242° Southwest 416 479 34,000 700 Level Memphis Center
Mon 07:44:22 PM 36.8931 -87.3453 242° Southwest 416 479 35,400 1,000 Climbing Memphis Center
Mon 07:45:22 PM 36.8439 -87.4664 243° Southwest 397 457 36,000 300 Climbing Memphis Center
Mon 07:46:22 PM 36.7906 -87.5900 242° Southwest 402 463 36,000  Level Memphis Center
Mon 07:47:22 PM 36.7369 -87.7108 241° Southwest 402 463 36,000  Level Memphis Center
Mon 07:48:22 PM 36.6853 -87.8342 242° Southwest 402 463 36,000  Level Memphis Center
Mon 07:49:22 PM 36.6333 -87.9522 241° Southwest 402 463 36,000  Level Memphis Center
Mon 07:50:22 PM 36.5794 -88.0753 241° Southwest 402 463 36,000  Level Memphis Center
Mon 07:51:22 PM 36.5275 -88.1956 242° Southwest 402 463 36,000  Level Memphis Center
Mon 07:52:22 PM 36.4733 -88.3183 241° Southwest 402 463 36,000  Level Memphis Center
Mon 07:53:22 PM 36.4208 -88.4383 241° Southwest 402 463 36,000  Level Memphis Center
Mon 07:54:22 PM 36.3664 -88.5606 241° Southwest 402 463 36,000  Level Memphis Center
Mon 07:55:22 PM 36.3139 -88.6803 241° Southwest 402 463 36,000  Level Memphis Center
Mon 07:56:22 PM 36.2572 -88.7997 240° Southwest 402 463 36,000  Level Memphis Center
Mon 07:57:22 PM 36.2106 -88.9061 241° Southwest 402 463 36,000  Level Memphis Center
Mon 07:58:22 PM 36.1556 -89.0281 241° Southwest 402 463 36,000  Level Memphis Center
Mon 07:59:22 PM 36.1006 -89.1497 241° Southwest 402 463 36,000  Level Memphis Center
Mon 08:00:22 PM 36.0475 -89.2686 241° Southwest 397 457 36,000  Level Memphis Center
Mon 08:01:22 PM 35.9942 -89.3847 240° Southwest 397 457 36,000  Level Memphis Center
Mon 08:02:22 PM 35.9408 -89.5033 241° Southwest 397 457 36,000  Level Memphis Center
Mon 08:03:22 PM 35.8853 -89.6217 240° Southwest 397 457 36,000  Level Memphis Center
Mon 08:04:22 PM 35.8339 -89.7375 241° Southwest 397 457 36,000  Level Memphis Center
Mon 08:05:22 PM 35.7800 -89.8531 240° Southwest 397 457 36,000  Level Memphis Center
Mon 08:06:22 PM 35.7283 -89.9683 241° Southwest 397 457 36,000  Level Memphis Center
Mon 08:07:22 PM 35.6744 -90.0911 242° Southwest 397 457 36,000  Level Memphis Center
Mon 08:08:22 PM 35.6247 -90.2039 242° Southwest 383 441 36,000  Level Memphis Center
Mon 08:09:22 PM 35.5706 -90.3189 240° Southwest 383 441 36,000  Level Memphis Center
Mon 08:10:22 PM 35.5183 -90.4286 240° Southwest 378 435 36,000  Level Memphis Center
Mon 08:11:22 PM 35.4661 -90.5431 241° Southwest 384 442 36,000  Level Memphis Center
Mon 08:12:22 PM 35.4139 -90.6578 241° Southwest 389 448 36,000  Level Memphis Center
Mon 08:13:22 PM 35.3592 -90.7719 240° Southwest 394 453 36,000  Level Memphis Center
Mon 08:14:22 PM 35.3025 -90.8889 239° Southwest 394 453 36,000  Level Memphis Center
Mon 08:15:22 PM 35.2497 -91.0056 241° Southwest 394 453 36,000  Level Memphis Center
Mon 08:16:22 PM 35.1928 -91.1167 238° Southwest 389 448 36,000  Level Memphis Center
Mon 08:17:22 PM 35.1419 -91.2306 241° Southwest 389 448 36,000  Level Memphis Center
Mon 08:18:22 PM 35.0850 -91.3317 235° Southwest 401 461 36,000  Level Memphis Center
Mon 08:19:22 PM 34.9822 -91.4064 211° Southwest 406 467 36,000  Level Memphis Center
Mon 08:20:22 PM 34.8731 -91.4733 207° Southwest 427 491 36,000  Level Memphis Center
Mon 08:21:22 PM 34.7661 -91.5428 208° Southwest 439 505 36,000  Level Memphis Center
Mon 08:22:22 PM 34.6631 -91.6119 209° Southwest 445 512 36,000  Level Memphis Center
Mon 08:23:22 PM 34.5561 -91.6811 208° Southwest 433 498 36,000  Level Memphis Center
Mon 08:24:22 PM 34.4406 -91.7522 207° Southwest 433 498 36,000  Level Memphis Center
Mon 08:25:22 PM 34.3333 -91.8211 208° Southwest 433 498 36,000  Level Memphis Center
Mon 08:26:22 PM 34.2303 -91.8897 209° Southwest 433 498 36,000  Level Memphis Center
Mon 08:27:22 PM 34.1228 -91.9581 208° Southwest 433 498 36,000  Level Memphis Center
Mon 08:28:22 PM 34.0217 -92.0289 210° Southwest 433 498 36,000  Level Memphis Center
Mon 08:30:43 PM 33.7744 -92.1861 208° Southwest 432 497 36,000  Level Fort Worth Center
Mon 08:31:43 PM 33.6667 -92.2525 207° Southwest 432 497 36,000  Level Fort Worth Center
Mon 08:32:43 PM 33.5544 -92.3189 206° Southwest 440 506 36,000  Level Fort Worth Center
Mon 08:33:43 PM 33.4631 -92.3789 209° Southwest 440 506 36,000  Level Fort Worth Center
Mon 08:34:43 PM 33.3483 -92.4303 201° Southwest 440 506 36,000  Level Fort Worth Center
Mon 08:35:43 PM 33.2197 -92.4525 188° South 453 521 36,000  Level Fort Worth Center
Mon 08:36:43 PM 33.0933 -92.4744 188° South 459 528 36,000  Level Fort Worth Center
Mon 08:37:43 PM 32.9669 -92.4961 188° South 459 528 36,000  Level Fort Worth Center
Mon 08:38:43 PM 32.8444 -92.5178 188° South 459 528 36,000  Level Fort Worth Center
Mon 08:40:40 PM 32.5911 -92.5664 189° South 450 518 36,000  Level Houston Center
Mon 08:41:42 PM 32.4669 -92.5878 188° South 450 518 36,000  Level Houston Center
Mon 08:42:44 PM 32.3428 -92.6114 189° South 451 519 36,000  Level Houston Center
Mon 08:43:45 PM 32.2181 -92.6333 188° South 454 522 36,000  Level Houston Center
Mon 08:44:47 PM 32.0925 -92.6553 188° South 456 525 36,000  Level Houston Center
Mon 08:45:49 PM 31.9694 -92.6850 192° South 451 519 36,000  Level Houston Center
Mon 08:46:51 PM 31.8575 -92.7872 218° Southwest 422 486 36,000  Level Houston Center
Mon 08:47:52 PM 31.7681 -92.8750 220° Southwest 421 484 36,000  Level Houston Center
Mon 08:48:54 PM 31.6778 -92.9614 219° Southwest 419 482 36,000  Level Houston Center
Mon 08:49:56 PM 31.5883 -93.0489 220° Southwest 421 484 36,000  Level Houston Center
Mon 08:50:58 PM 31.4986 -93.1361 220° Southwest 422 486 36,000  Level Houston Center
Mon 08:51:59 PM 31.4075 -93.2225 219° Southwest 423 487 36,000  Level Houston Center
Mon 08:53:01 PM 31.3125 -93.3133 219° Southwest 422 486 36,000  Level Houston Center
Mon 08:54:03 PM 31.2075 -93.4128 219° Southwest 423 487 36,000  Level Houston Center
Mon 08:55:04 PM 31.1158 -93.4986 219° Southwest 423 487 36,000 -829 Level Houston Center
Mon 08:56:06 PM 31.0267 -93.5839 219° Southwest 418 481 34,300 -1,887 Descending Houston Center
Mon 08:57:08 PM 30.9436 -93.6644 220° Southwest 394 453 32,100 -2,537 Descending Houston Center
Mon 08:58:09 PM 30.8603 -93.7431 219° Southwest 387 445 29,100 -3,317 Descending Houston Center
Mon 08:59:11 PM 30.7586 -93.8386 219° Southwest 392 451 25,300 -3,145 Descending Houston Center
Mon 09:00:13 PM 30.6703 -93.9233 220° Southwest 407 468 22,600 -2,585 Descending Houston Center
Mon 09:01:14 PM 30.5794 -94.0064 218° Southwest 416 479 20,000 -2,293 Descending Houston Center
Mon 09:02:16 PM 30.4914 -94.0892 219° Southwest 412 474 17,900 -2,103 Descending Houston Center
Mon 09:02:51 PM 30.4308 -94.1472 220° Southwest 401 461 16,600 -1,839 Descending Houston Center
Mon 09:03:18 PM 30.4053 -94.1694 217° Southwest 401 461 16,000 -1,855 Descending Houston Center
Mon 09:03:46 PM 30.3536 -94.2156 218° Southwest 393 452 14,900 -1,967 Descending Houston Center
Mon 09:04:19 PM 30.3211 -94.2483 221° Southwest 394 453 14,000 -1,869 Descending Houston Center
Mon 09:04:47 PM 30.2672 -94.2972 218° Southwest 387 445 13,000 -1,548 Descending Houston Center
Mon 09:05:21 PM 30.2300 -94.3411 226° Southwest 363 418 12,400 -764 Descending Houston Center
Mon 09:05:42 PM 30.2161 -94.3742 244° Southwest 331 381 12,300 -774 Descending Houston Center
Mon 09:06:23 PM 30.1989 -94.4461 255° West 345 397 11,600 -1,180 Descending Houston Center
Mon 09:06:43 PM 30.1894 -94.4889 256° West 351 404 11,100 -1,082 Descending Houston Center
Mon 09:07:24 PM 30.1794 -94.5508 259° West 347 399 10,500 -1,082 Descending Houston Center
Mon 09:07:44 PM 30.1686 -94.5981 255° West 348 400 10,000 -387 Descending Houston Center
Mon 09:08:26 PM 30.1561 -94.6583 257° West 347 399 10,100  Climbing Houston Center
Mon 09:08:46 PM 30.1472 -94.7025 257° West 320 368 10,000  Descending Houston Center
Mon 09:09:27 PM 30.1361 -94.7581 257° West 324 373 10,100  Climbing Houston Center
Mon 09:09:47 PM 30.1253 -94.8019 254° West 321 369 10,000  Descending Houston Center
Mon 09:10:29 PM 30.1144 -94.8578 257° West 320 368 10,100 -98 Climbing Houston Center
Mon 09:10:48 PM 30.1056 -94.9033 257° West 291 335 9,900 -1,082 Descending Houston Center
Mon 09:11:30 PM 30.1064 -94.9628 271° West 270 311 9,000 -1,343 Descending Houston Center
Mon 09:11:55 PM 30.1061 -94.9975 269° West 266 306 8,400 -871 Descending Houston Center
Mon 09:12:32 PM 30.1069 -95.0486 271° West 268 308 8,100 -393 Descending Houston Center
Mon 09:12:56 PM 30.1058 -95.0847 268° West 268 308 8,000 -290 Descending Houston Center
Mon 09:13:34 PM 30.1064 -95.1322 271° West 262 302 7,800 -689 Descending Houston Center
Mon 09:13:57 PM 30.1056 -95.1739 269° West 267 307 7,300 -984 Descending Houston Center
Mon 09:14:35 PM 30.1067 -95.2197 272° West 271 312 6,800 -1,091 Descending Houston Center
Mon 09:14:52 PM 30.1069 -95.2558 271° West 275 316 6,300 -677 Descending Houston Center
Mon 09:15:37 PM 30.1069 -95.3069 270° West 274 315 6,100 -269 Descending Houston Center
Mon 09:15:59 PM 30.1067 -95.3453 270° West 235 270 6,000 -581 Descending Houston Center
Mon 09:16:39 PM 30.1069 -95.3833 270° West 243 280 5,500 -1,258 Descending Houston Center
Mon 09:17:01 PM 30.1069 -95.4178 270° West 224 258 4,700 -1,475 Descending Houston Center
Mon 09:17:40 PM 30.1067 -95.4531 269° West 222 255 4,000 -1,180 Descending Houston Center
Mon 09:18:02 PM 30.1056 -95.4953 268° West 225 259 3,500 -984 Descending Houston Center
Mon 09:18:41 PM 30.0883 -95.5264 237° Southwest 224 258 3,000 -492 Descending Houston Center
Mon 09:19:03 PM 30.0686 -95.5261 179° South 181 208 3,000 -97 Level Houston Center
Mon 09:19:43 PM 30.0397 -95.5197 169° South 190 219 2,900 -393 Descending Houston Center
Mon 09:20:04 PM 30.0308 -95.5017 120° Southeast 182 209 2,600 -871 Descending Houston Center
Mon 09:20:45 PM 30.0181 -95.4697 115° Southeast 180 207 2,000 -984 Descending Houston Center
Mon 09:21:05 PM 30.0097 -95.4561 125° Southeast 154 177 1,600 -1,200 Descending Houston Center

Login

Don't have an account? Register now (free) for customized features, flight alerts, and more!